sensor_id;sensor_type;location;lat;lon;timestamp;P1;durP1;ratioP1;P2;durP2;ratioP2
62338;SDS011;48368;53.406;6.214;2022-08-21T00:02:16;9.63;;;5.95;;
62338;SDS011;48368;53.406;6.214;2022-08-21T00:04:44;14.02;;;5.88;;
62338;SDS011;48368;53.406;6.214;2022-08-21T00:07:10;10.93;;;5.78;;
62338;SDS011;48368;53.406;6.214;2022-08-21T00:09:36;10.75;;;5.25;;
62338;SDS011;48368;53.406;6.214;2022-08-21T00:12:03;10.85;;;6.03;;
62338;SDS011;48368;53.406;6.214;2022-08-21T00:14:30;10.02;;;6.13;;
62338;SDS011;48368;53.406;6.214;2022-08-21T00:16:55;9.13;;;5.53;;
62338;SDS011;48368;53.406;6.214;2022-08-21T00:19:21;10.23;;;4.95;;
62338;SDS011;48368;53.406;6.214;2022-08-21T00:21:50;11.48;;;5.35;;
62338;SDS011;48368;53.406;6.214;2022-08-21T00:24:17;11.20;;;5.28;;
62338;SDS011;48368;53.406;6.214;2022-08-21T00:26:43;9.55;;;5.38;;
62338;SDS011;48368;53.406;6.214;2022-08-21T00:29:09;9.90;;;5.68;;
62338;SDS011;48368;53.406;6.214;2022-08-21T00:31:35;10.63;;;5.85;;
62338;SDS011;48368;53.406;6.214;2022-08-21T00:34:00;10.95;;;6.60;;
62338;SDS011;48368;53.406;6.214;2022-08-21T00:36:26;11.35;;;5.88;;
62338;SDS011;48368;53.406;6.214;2022-08-21T00:38:52;13.43;;;6.50;;
62338;SDS011;48368;53.406;6.214;2022-08-21T00:41:18;10.95;;;6.93;;
62338;SDS011;48368;53.406;6.214;2022-08-21T00:43:44;11.18;;;6.65;;
62338;SDS011;48368;53.406;6.214;2022-08-21T00:46:09;12.43;;;6.78;;
62338;SDS011;48368;53.406;6.214;2022-08-21T00:48:35;13.82;;;6.68;;
62338;SDS011;48368;53.406;6.214;2022-08-21T00:51:08;12.25;;;6.53;;
62338;SDS011;48368;53.406;6.214;2022-08-21T00:53:39;11.55;;;6.53;;
62338;SDS011;48368;53.406;6.214;2022-08-21T00:56:09;13.88;;;6.43;;
62338;SDS011;48368;53.406;6.214;2022-08-21T00:58:37;13.63;;;7.47;;
62338;SDS011;48368;53.406;6.214;2022-08-21T01:01:07;16.90;;;8.00;;
62338;SDS011;48368;53.406;6.214;2022-08-21T01:03:33;12.57;;;7.72;;
62338;SDS011;48368;53.406;6.214;2022-08-21T01:06:00;14.48;;;7.40;;
62338;SDS011;48368;53.406;6.214;2022-08-21T01:08:26;12.70;;;8.05;;
62338;SDS011;48368;53.406;6.214;2022-08-21T01:10:54;12.65;;;7.78;;
62338;SDS011;48368;53.406;6.214;2022-08-21T01:13:20;17.15;;;7.60;;
62338;SDS011;48368;53.406;6.214;2022-08-21T01:15:48;14.73;;;8.50;;
62338;SDS011;48368;53.406;6.214;2022-08-21T01:18:17;11.88;;;8.30;;
62338;SDS011;48368;53.406;6.214;2022-08-21T01:20:56;17.33;;;8.60;;
62338;SDS011;48368;53.406;6.214;2022-08-21T01:25:53;12.52;;;7.90;;
62338;SDS011;48368;53.406;6.214;2022-08-21T01:28:19;15.10;;;7.75;;
62338;SDS011;48368;53.406;6.214;2022-08-21T01:30:46;13.48;;;7.78;;
62338;SDS011;48368;53.406;6.214;2022-08-21T01:33:13;11.07;;;7.97;;
62338;SDS011;48368;53.406;6.214;2022-08-21T01:35:39;12.60;;;7.43;;
62338;SDS011;48368;53.406;6.214;2022-08-21T01:38:05;15.80;;;8.70;;
62338;SDS011;48368;53.406;6.214;2022-08-21T01:40:30;12.50;;;7.90;;
62338;SDS011;48368;53.406;6.214;2022-08-21T01:42:56;14.77;;;7.32;;
62338;SDS011;48368;53.406;6.214;2022-08-21T01:45:22;13.80;;;8.10;;
62338;SDS011;48368;53.406;6.214;2022-08-21T01:47:48;13.75;;;8.35;;
62338;SDS011;48368;53.406;6.214;2022-08-21T01:50:16;11.13;;;7.32;;
62338;SDS011;48368;53.406;6.214;2022-08-21T01:52:43;17.98;;;7.85;;
62338;SDS011;48368;53.406;6.214;2022-08-21T01:55:09;13.57;;;7.57;;
62338;SDS011;48368;53.406;6.214;2022-08-21T01:57:36;12.48;;;7.60;;
62338;SDS011;48368;53.406;6.214;2022-08-21T02:00:03;16.85;;;8.15;;
62338;SDS011;48368;53.406;6.214;2022-08-21T02:02:30;11.65;;;7.60;;
62338;SDS011;48368;53.406;6.214;2022-08-21T02:04:56;13.88;;;7.85;;
62338;SDS011;48368;53.406;6.214;2022-08-21T02:07:21;12.63;;;7.80;;
62338;SDS011;48368;53.406;6.214;2022-08-21T02:09:47;14.90;;;8.15;;
62338;SDS011;48368;53.406;6.214;2022-08-21T02:12:13;13.48;;;7.72;;
62338;SDS011;48368;53.406;6.214;2022-08-21T02:14:38;12.57;;;7.80;;
62338;SDS011;48368;53.406;6.214;2022-08-21T02:17:04;13.77;;;7.68;;
62338;SDS011;48368;53.406;6.214;2022-08-21T02:19:30;10.88;;;7.55;;
62338;SDS011;48368;53.406;6.214;2022-08-21T02:21:55;16.20;;;8.15;;
62338;SDS011;48368;53.406;6.214;2022-08-21T02:24:21;16.20;;;8.35;;
62338;SDS011;48368;53.406;6.214;2022-08-21T02:26:47;16.50;;;8.60;;
62338;SDS011;48368;53.406;6.214;2022-08-21T02:29:12;16.60;;;8.40;;
62338;SDS011;48368;53.406;6.214;2022-08-21T02:31:38;14.45;;;9.27;;
62338;SDS011;48368;53.406;6.214;2022-08-21T02:34:04;12.52;;;8.32;;
62338;SDS011;48368;53.406;6.214;2022-08-21T02:36:30;15.68;;;8.88;;
62338;SDS011;48368;53.406;6.214;2022-08-21T02:38:55;14.07;;;8.95;;
62338;SDS011;48368;53.406;6.214;2022-08-21T02:41:21;15.23;;;8.85;;
62338;SDS011;48368;53.406;6.214;2022-08-21T02:43:47;13.90;;;8.55;;
62338;SDS011;48368;53.406;6.214;2022-08-21T02:46:15;12.32;;;8.40;;
62338;SDS011;48368;53.406;6.214;2022-08-21T02:48:42;10.93;;;8.50;;
62338;SDS011;48368;53.406;6.214;2022-08-21T02:51:10;13.23;;;8.30;;
62338;SDS011;48368;53.406;6.214;2022-08-21T02:53:38;14.43;;;8.85;;
62338;SDS011;48368;53.406;6.214;2022-08-21T02:56:05;12.77;;;8.48;;
62338;SDS011;48368;53.406;6.214;2022-08-21T02:58:34;14.88;;;9.30;;
62338;SDS011;48368;53.406;6.214;2022-08-21T03:01:11;14.80;;;9.30;;
62338;SDS011;48368;53.406;6.214;2022-08-21T03:03:38;15.30;;;8.80;;
62338;SDS011;48368;53.406;6.214;2022-08-21T03:06:06;15.98;;;8.80;;
62338;SDS011;48368;53.406;6.214;2022-08-21T03:08:33;14.63;;;8.63;;
62338;SDS011;48368;53.406;6.214;2022-08-21T03:10:59;13.82;;;8.85;;
62338;SDS011;48368;53.406;6.214;2022-08-21T03:13:26;12.52;;;8.65;;
62338;SDS011;48368;53.406;6.214;2022-08-21T03:15:53;14.00;;;8.85;;
62338;SDS011;48368;53.406;6.214;2022-08-21T03:18:19;13.75;;;8.65;;
62338;SDS011;48368;53.406;6.214;2022-08-21T03:20:45;14.98;;;9.13;;
62338;SDS011;48368;53.406;6.214;2022-08-21T03:23:12;14.10;;;9.65;;
62338;SDS011;48368;53.406;6.214;2022-08-21T03:25:38;15.18;;;9.95;;
62338;SDS011;48368;53.406;6.214;2022-08-21T03:28:05;16.65;;;8.88;;
62338;SDS011;48368;53.406;6.214;2022-08-21T03:30:32;14.23;;;9.45;;
62338;SDS011;48368;53.406;6.214;2022-08-21T03:32:58;16.15;;;9.57;;
62338;SDS011;48368;53.406;6.214;2022-08-21T03:35:25;14.63;;;9.10;;
62338;SDS011;48368;53.406;6.214;2022-08-21T03:37:52;18.98;;;9.57;;
62338;SDS011;48368;53.406;6.214;2022-08-21T03:40:20;16.50;;;9.10;;
62338;SDS011;48368;53.406;6.214;2022-08-21T03:42:49;16.58;;;8.98;;
62338;SDS011;48368;53.406;6.214;2022-08-21T03:45:16;13.45;;;8.65;;
62338;SDS011;48368;53.406;6.214;2022-08-21T03:50:26;16.17;;;8.93;;
62338;SDS011;48368;53.406;6.214;2022-08-21T03:52:54;15.63;;;8.83;;
62338;SDS011;48368;53.406;6.214;2022-08-21T03:55:21;16.73;;;9.13;;
62338;SDS011;48368;53.406;6.214;2022-08-21T03:57:47;17.20;;;8.80;;
62338;SDS011;48368;53.406;6.214;2022-08-21T04:00:14;13.25;;;8.68;;
62338;SDS011;48368;53.406;6.214;2022-08-21T04:02:40;17.88;;;9.20;;
62338;SDS011;48368;53.406;6.214;2022-08-21T04:05:07;14.07;;;7.97;;
62338;SDS011;48368;53.406;6.214;2022-08-21T04:07:33;16.95;;;8.95;;
62338;SDS011;48368;53.406;6.214;2022-08-21T04:09:59;15.05;;;8.35;;
62338;SDS011;48368;53.406;6.214;2022-08-21T04:12:25;16.55;;;8.55;;
62338;SDS011;48368;53.406;6.214;2022-08-21T04:14:50;17.23;;;7.72;;
62338;SDS011;48368;53.406;6.214;2022-08-21T04:17:16;18.10;;;9.35;;
62338;SDS011;48368;53.406;6.214;2022-08-21T04:19:43;13.93;;;8.02;;
62338;SDS011;48368;53.406;6.214;2022-08-21T04:22:09;13.60;;;7.45;;
62338;SDS011;48368;53.406;6.214;2022-08-21T04:24:34;15.80;;;7.80;;
62338;SDS011;48368;53.406;6.214;2022-08-21T04:27:00;13.15;;;8.40;;
62338;SDS011;48368;53.406;6.214;2022-08-21T04:29:26;16.98;;;7.82;;
62338;SDS011;48368;53.406;6.214;2022-08-21T04:31:52;15.15;;;7.70;;
62338;SDS011;48368;53.406;6.214;2022-08-21T04:34:18;14.25;;;8.32;;
62338;SDS011;48368;53.406;6.214;2022-08-21T04:36:43;16.88;;;8.13;;
62338;SDS011;48368;53.406;6.214;2022-08-21T04:39:09;14.30;;;7.45;;
62338;SDS011;48368;53.406;6.214;2022-08-21T04:41:35;13.88;;;7.75;;
62338;SDS011;48368;53.406;6.214;2022-08-21T04:44:01;14.00;;;7.53;;
62338;SDS011;48368;53.406;6.214;2022-08-21T04:46:28;14.98;;;7.55;;
62338;SDS011;48368;53.406;6.214;2022-08-21T04:48:54;14.27;;;8.02;;
62338;SDS011;48368;53.406;6.214;2022-08-21T04:51:24;15.13;;;8.25;;
62338;SDS011;48368;53.406;6.214;2022-08-21T04:54:06;14.07;;;8.70;;
62338;SDS011;48368;53.406;6.214;2022-08-21T04:56:39;11.60;;;7.70;;
62338;SDS011;48368;53.406;6.214;2022-08-21T04:59:11;13.35;;;7.30;;
62338;SDS011;48368;53.406;6.214;2022-08-21T05:01:41;13.15;;;8.15;;
62338;SDS011;48368;53.406;6.214;2022-08-21T05:04:08;11.80;;;7.25;;
62338;SDS011;48368;53.406;6.214;2022-08-21T05:06:37;13.73;;;7.70;;
62338;SDS011;48368;53.406;6.214;2022-08-21T05:09:06;13.68;;;7.70;;
62338;SDS011;48368;53.406;6.214;2022-08-21T05:11:34;14.18;;;7.90;;
62338;SDS011;48368;53.406;6.214;2022-08-21T05:14:00;15.25;;;7.55;;
62338;SDS011;48368;53.406;6.214;2022-08-21T05:16:26;17.13;;;7.60;;
62338;SDS011;48368;53.406;6.214;2022-08-21T05:18:51;16.50;;;8.25;;
62338;SDS011;48368;53.406;6.214;2022-08-21T05:21:17;14.85;;;7.78;;
62338;SDS011;48368;53.406;6.214;2022-08-21T05:23:42;14.38;;;8.13;;
62338;SDS011;48368;53.406;6.214;2022-08-21T05:26:08;13.57;;;7.82;;
62338;SDS011;48368;53.406;6.214;2022-08-21T05:28:34;15.07;;;8.85;;
62338;SDS011;48368;53.406;6.214;2022-08-21T05:31:00;12.52;;;8.73;;
62338;SDS011;48368;53.406;6.214;2022-08-21T05:33:25;10.73;;;7.35;;
62338;SDS011;48368;53.406;6.214;2022-08-21T05:35:52;14.73;;;7.80;;
62338;SDS011;48368;53.406;6.214;2022-08-21T05:38:20;13.43;;;7.75;;
62338;SDS011;48368;53.406;6.214;2022-08-21T05:40:46;17.85;;;8.43;;
62338;SDS011;48368;53.406;6.214;2022-08-21T05:43:12;14.55;;;8.43;;
62338;SDS011;48368;53.406;6.214;2022-08-21T05:45:39;17.42;;;8.25;;
62338;SDS011;48368;53.406;6.214;2022-08-21T05:48:09;16.70;;;8.75;;
62338;SDS011;48368;53.406;6.214;2022-08-21T05:50:40;14.10;;;7.88;;
62338;SDS011;48368;53.406;6.214;2022-08-21T05:53:07;18.35;;;8.10;;
62338;SDS011;48368;53.406;6.214;2022-08-21T05:55:35;15.02;;;7.63;;
62338;SDS011;48368;53.406;6.214;2022-08-21T05:58:02;13.98;;;8.45;;
62338;SDS011;48368;53.406;6.214;2022-08-21T06:00:28;13.80;;;7.80;;
62338;SDS011;48368;53.406;6.214;2022-08-21T06:02:54;12.63;;;7.82;;
62338;SDS011;48368;53.406;6.214;2022-08-21T06:05:20;19.90;;;7.90;;
62338;SDS011;48368;53.406;6.214;2022-08-21T06:07:45;13.35;;;7.07;;
62338;SDS011;48368;53.406;6.214;2022-08-21T06:10:11;13.60;;;7.97;;
62338;SDS011;48368;53.406;6.214;2022-08-21T06:12:37;16.80;;;7.60;;
62338;SDS011;48368;53.406;6.214;2022-08-21T06:15:03;14.70;;;7.20;;
62338;SDS011;48368;53.406;6.214;2022-08-21T06:17:29;13.02;;;6.75;;
62338;SDS011;48368;53.406;6.214;2022-08-21T06:19:55;16.50;;;7.68;;
62338;SDS011;48368;53.406;6.214;2022-08-21T06:22:21;15.25;;;7.00;;
62338;SDS011;48368;53.406;6.214;2022-08-21T06:24:46;12.43;;;7.70;;
62338;SDS011;48368;53.406;6.214;2022-08-21T06:27:12;13.23;;;7.05;;
62338;SDS011;48368;53.406;6.214;2022-08-21T06:29:38;14.10;;;7.20;;
62338;SDS011;48368;53.406;6.214;2022-08-21T06:32:04;12.30;;;7.80;;
62338;SDS011;48368;53.406;6.214;2022-08-21T06:34:35;14.85;;;7.28;;
62338;SDS011;48368;53.406;6.214;2022-08-21T06:37:01;12.07;;;6.50;;
62338;SDS011;48368;53.406;6.214;2022-08-21T06:39:27;11.43;;;6.53;;
62338;SDS011;48368;53.406;6.214;2022-08-21T06:41:53;13.25;;;6.03;;
62338;SDS011;48368;53.406;6.214;2022-08-21T06:44:19;12.70;;;5.95;;
62338;SDS011;48368;53.406;6.214;2022-08-21T06:46:45;14.30;;;5.95;;
62338;SDS011;48368;53.406;6.214;2022-08-21T06:49:11;10.75;;;5.70;;
62338;SDS011;48368;53.406;6.214;2022-08-21T06:51:37;10.82;;;5.65;;
62338;SDS011;48368;53.406;6.214;2022-08-21T06:54:04;14.43;;;5.72;;
62338;SDS011;48368;53.406;6.214;2022-08-21T06:56:29;11.93;;;5.72;;
62338;SDS011;48368;53.406;6.214;2022-08-21T06:58:55;11.73;;;5.15;;
62338;SDS011;48368;53.406;6.214;2022-08-21T07:01:22;12.77;;;4.57;;
62338;SDS011;48368;53.406;6.214;2022-08-21T07:03:49;12.23;;;4.75;;
62338;SDS011;48368;53.406;6.214;2022-08-21T07:06:15;14.20;;;4.00;;
62338;SDS011;48368;53.406;6.214;2022-08-21T07:08:41;11.77;;;4.63;;
62338;SDS011;48368;53.406;6.214;2022-08-21T07:11:09;14.98;;;4.75;;
62338;SDS011;48368;53.406;6.214;2022-08-21T07:13:39;11.23;;;4.70;;
62338;SDS011;48368;53.406;6.214;2022-08-21T07:16:05;9.35;;;4.10;;
62338;SDS011;48368;53.406;6.214;2022-08-21T07:18:31;11.88;;;4.45;;
62338;SDS011;48368;53.406;6.214;2022-08-21T07:20:57;11.27;;;3.85;;
62338;SDS011;48368;53.406;6.214;2022-08-21T07:23:30;11.88;;;3.95;;
62338;SDS011;48368;53.406;6.214;2022-08-21T07:26:02;10.98;;;4.18;;
62338;SDS011;48368;53.406;6.214;2022-08-21T07:28:28;9.75;;;3.38;;
62338;SDS011;48368;53.406;6.214;2022-08-21T07:30:55;12.32;;;3.92;;
62338;SDS011;48368;53.406;6.214;2022-08-21T07:33:23;8.77;;;4.07;;
62338;SDS011;48368;53.406;6.214;2022-08-21T07:35:49;7.00;;;3.50;;
62338;SDS011;48368;53.406;6.214;2022-08-21T07:38:15;9.68;;;3.58;;
62338;SDS011;48368;53.406;6.214;2022-08-21T07:40:41;10.45;;;3.75;;
62338;SDS011;48368;53.406;6.214;2022-08-21T07:43:07;9.32;;;3.50;;
62338;SDS011;48368;53.406;6.214;2022-08-21T07:45:33;9.02;;;3.47;;
62338;SDS011;48368;53.406;6.214;2022-08-21T07:47:59;11.95;;;3.80;;
62338;SDS011;48368;53.406;6.214;2022-08-21T07:50:25;9.35;;;3.30;;
62338;SDS011;48368;53.406;6.214;2022-08-21T07:52:51;10.40;;;3.53;;
62338;SDS011;48368;53.406;6.214;2022-08-21T07:55:17;11.23;;;4.05;;
62338;SDS011;48368;53.406;6.214;2022-08-21T07:57:45;9.88;;;3.92;;
62338;SDS011;48368;53.406;6.214;2022-08-21T08:00:12;11.63;;;3.70;;
62338;SDS011;48368;53.406;6.214;2022-08-21T08:02:40;10.55;;;3.90;;
62338;SDS011;48368;53.406;6.214;2022-08-21T08:05:08;10.45;;;4.05;;
62338;SDS011;48368;53.406;6.214;2022-08-21T08:07:36;9.90;;;3.47;;
62338;SDS011;48368;53.406;6.214;2022-08-21T08:10:03;10.43;;;3.60;;
62338;SDS011;48368;53.406;6.214;2022-08-21T08:12:30;14.65;;;4.30;;
62338;SDS011;48368;53.406;6.214;2022-08-21T08:14:56;8.75;;;3.85;;
62338;SDS011;48368;53.406;6.214;2022-08-21T08:17:23;11.38;;;4.30;;
62338;SDS011;48368;53.406;6.214;2022-08-21T08:19:49;9.93;;;3.92;;
62338;SDS011;48368;53.406;6.214;2022-08-21T08:22:16;7.85;;;3.20;;
62338;SDS011;48368;53.406;6.214;2022-08-21T08:24:48;8.50;;;2.72;;
62338;SDS011;48368;53.406;6.214;2022-08-21T08:27:18;11.95;;;3.22;;
62338;SDS011;48368;53.406;6.214;2022-08-21T08:29:44;12.00;;;3.30;;
62338;SDS011;48368;53.406;6.214;2022-08-21T08:32:11;13.77;;;3.55;;
62338;SDS011;48368;53.406;6.214;2022-08-21T08:34:37;9.45;;;3.70;;
62338;SDS011;48368;53.406;6.214;2022-08-21T08:37:04;11.20;;;3.35;;
62338;SDS011;48368;53.406;6.214;2022-08-21T08:39:31;8.88;;;3.47;;
62338;SDS011;48368;53.406;6.214;2022-08-21T08:42:08;10.13;;;3.95;;
62338;SDS011;48368;53.406;6.214;2022-08-21T08:44:41;9.23;;;3.28;;
62338;SDS011;48368;53.406;6.214;2022-08-21T08:47:08;10.15;;;3.70;;
62338;SDS011;48368;53.406;6.214;2022-08-21T08:49:54;10.80;;;3.40;;
62338;SDS011;48368;53.406;6.214;2022-08-21T08:52:36;14.23;;;3.93;;
62338;SDS011;48368;53.406;6.214;2022-08-21T08:55:21;12.00;;;3.53;;
62338;SDS011;48368;53.406;6.214;2022-08-21T08:57:53;13.40;;;3.75;;
62338;SDS011;48368;53.406;6.214;2022-08-21T09:00:20;15.73;;;4.38;;
62338;SDS011;48368;53.406;6.214;2022-08-21T09:02:48;9.50;;;2.80;;
62338;SDS011;48368;53.406;6.214;2022-08-21T09:05:30;9.43;;;3.10;;
62338;SDS011;48368;53.406;6.214;2022-08-21T09:19:16;6.85;;;2.20;;
62338;SDS011;48368;53.406;6.214;2022-08-21T09:22:06;6.57;;;2.58;;
62338;SDS011;48368;53.406;6.214;2022-08-21T09:24:48;13.70;;;2.97;;
62338;SDS011;48368;53.406;6.214;2022-08-21T09:27:17;10.90;;;2.83;;
62338;SDS011;48368;53.406;6.214;2022-08-21T09:29:45;8.57;;;2.75;;
62338;SDS011;48368;53.406;6.214;2022-08-21T09:34:53;9.05;;;2.47;;
62338;SDS011;48368;53.406;6.214;2022-08-21T09:38:00;7.68;;;2.83;;
62338;SDS011;48368;53.406;6.214;2022-08-21T09:40:40;9.60;;;2.20;;
62338;SDS011;48368;53.406;6.214;2022-08-21T09:45:36;6.68;;;2.70;;
62338;SDS011;48368;53.406;6.214;2022-08-21T09:48:23;5.43;;;1.95;;
62338;SDS011;48368;53.406;6.214;2022-08-21T09:50:50;6.10;;;2.63;;
62338;SDS011;48368;53.406;6.214;2022-08-21T09:53:18;7.35;;;2.72;;
62338;SDS011;48368;53.406;6.214;2022-08-21T09:55:52;9.48;;;2.38;;
62338;SDS011;48368;53.406;6.214;2022-08-21T09:58:44;5.78;;;2.03;;
62338;SDS011;48368;53.406;6.214;2022-08-21T10:01:18;8.88;;;2.60;;
62338;SDS011;48368;53.406;6.214;2022-08-21T10:03:45;6.75;;;2.08;;
62338;SDS011;48368;53.406;6.214;2022-08-21T10:06:21;9.80;;;2.58;;
62338;SDS011;48368;53.406;6.214;2022-08-21T10:08:49;6.63;;;2.40;;
62338;SDS011;48368;53.406;6.214;2022-08-21T10:11:15;7.50;;;2.13;;
62338;SDS011;48368;53.406;6.214;2022-08-21T10:13:51;9.05;;;3.15;;
62338;SDS011;48368;53.406;6.214;2022-08-21T10:19:24;7.63;;;2.63;;
62338;SDS011;48368;53.406;6.214;2022-08-21T10:24:58;8.18;;;2.47;;
62338;SDS011;48368;53.406;6.214;2022-08-21T10:30:39;8.20;;;2.33;;
62338;SDS011;48368;53.406;6.214;2022-08-21T10:33:13;6.78;;;2.10;;
62338;SDS011;48368;53.406;6.214;2022-08-21T10:36:05;4.95;;;1.92;;
62338;SDS011;48368;53.406;6.214;2022-08-21T10:47:18;7.78;;;2.40;;
62338;SDS011;48368;53.406;6.214;2022-08-21T10:55:27;9.75;;;2.00;;
62338;SDS011;48368;53.406;6.214;2022-08-21T10:58:11;7.72;;;2.03;;
62338;SDS011;48368;53.406;6.214;2022-08-21T11:03:21;7.15;;;1.70;;
62338;SDS011;48368;53.406;6.214;2022-08-21T11:05:58;4.22;;;1.40;;
62338;SDS011;48368;53.406;6.214;2022-08-21T11:08:39;2.72;;;0.60;;
62338;SDS011;48368;53.406;6.214;2022-08-21T11:12:07;3.58;;;0.70;;
62338;SDS011;48368;53.406;6.214;2022-08-21T11:28:09;4.90;;;1.63;;
62338;SDS011;48368;53.406;6.214;2022-08-21T11:33:52;7.55;;;1.90;;
62338;SDS011;48368;53.406;6.214;2022-08-21T11:36:59;5.50;;;1.52;;
62338;SDS011;48368;53.406;6.214;2022-08-21T11:39:42;6.80;;;1.45;;
62338;SDS011;48368;53.406;6.214;2022-08-21T11:45:37;5.05;;;1.15;;
62338;SDS011;48368;53.406;6.214;2022-08-21T11:50:48;3.92;;;1.13;;
62338;SDS011;48368;53.406;6.214;2022-08-21T11:53:21;8.32;;;1.73;;
62338;SDS011;48368;53.406;6.214;2022-08-21T11:56:09;5.85;;;1.30;;
62338;SDS011;48368;53.406;6.214;2022-08-21T11:58:43;4.53;;;1.42;;
62338;SDS011;48368;53.406;6.214;2022-08-21T12:01:21;5.75;;;1.50;;
62338;SDS011;48368;53.406;6.214;2022-08-21T12:06:30;4.35;;;1.25;;
62338;SDS011;48368;53.406;6.214;2022-08-21T12:11:51;5.13;;;1.35;;
62338;SDS011;48368;53.406;6.214;2022-08-21T12:14:45;4.57;;;1.33;;
62338;SDS011;48368;53.406;6.214;2022-08-21T12:17:20;4.93;;;1.30;;
62338;SDS011;48368;53.406;6.214;2022-08-21T12:22:54;4.60;;;1.50;;
62338;SDS011;48368;53.406;6.214;2022-08-21T12:25:48;5.35;;;1.30;;
62338;SDS011;48368;53.406;6.214;2022-08-21T12:28:24;4.60;;;1.40;;
62338;SDS011;48368;53.406;6.214;2022-08-21T12:30:51;5.40;;;1.42;;
62338;SDS011;48368;53.406;6.214;2022-08-21T12:38:46;7.20;;;1.98;;
62338;SDS011;48368;53.406;6.214;2022-08-21T12:41:18;4.63;;;1.58;;
62338;SDS011;48368;53.406;6.214;2022-08-21T12:43:48;4.40;;;1.40;;
62338;SDS011;48368;53.406;6.214;2022-08-21T12:46:34;6.70;;;1.58;;
62338;SDS011;48368;53.406;6.214;2022-08-21T12:49:25;8.95;;;1.75;;
62338;SDS011;48368;53.406;6.214;2022-08-21T12:52:12;3.85;;;1.50;;
62338;SDS011;48368;53.406;6.214;2022-08-21T12:54:45;4.88;;;1.45;;
62338;SDS011;48368;53.406;6.214;2022-08-21T12:57:19;7.45;;;1.70;;
62338;SDS011;48368;53.406;6.214;2022-08-21T12:59:53;6.10;;;1.50;;
62338;SDS011;48368;53.406;6.214;2022-08-21T13:02:20;7.18;;;1.88;;
62338;SDS011;48368;53.406;6.214;2022-08-21T13:04:49;6.72;;;1.70;;
62338;SDS011;48368;53.406;6.214;2022-08-21T13:07:19;6.50;;;2.05;;
62338;SDS011;48368;53.406;6.214;2022-08-21T13:09:55;5.78;;;2.17;;
62338;SDS011;48368;53.406;6.214;2022-08-21T13:12:23;5.28;;;1.52;;
62338;SDS011;48368;53.406;6.214;2022-08-21T13:14:50;5.03;;;1.15;;
62338;SDS011;48368;53.406;6.214;2022-08-21T13:17:20;4.70;;;1.33;;
62338;SDS011;48368;53.406;6.214;2022-08-21T13:19:59;6.57;;;1.52;;
62338;SDS011;48368;53.406;6.214;2022-08-21T13:22:30;7.65;;;1.17;;
62338;SDS011;48368;53.406;6.214;2022-08-21T13:24:56;6.32;;;1.50;;
62338;SDS011;48368;53.406;6.214;2022-08-21T13:27:27;6.00;;;1.33;;
62338;SDS011;48368;53.406;6.214;2022-08-21T13:32:30;5.90;;;1.27;;
62338;SDS011;48368;53.406;6.214;2022-08-21T13:34:58;7.70;;;1.65;;
62338;SDS011;48368;53.406;6.214;2022-08-21T13:37:31;4.47;;;1.45;;
62338;SDS011;48368;53.406;6.214;2022-08-21T13:39:57;6.07;;;1.58;;
62338;SDS011;48368;53.406;6.214;2022-08-21T13:42:23;5.88;;;1.80;;
62338;SDS011;48368;53.406;6.214;2022-08-21T13:44:50;6.53;;;1.63;;
62338;SDS011;48368;53.406;6.214;2022-08-21T13:47:17;7.45;;;1.80;;
62338;SDS011;48368;53.406;6.214;2022-08-21T13:49:44;5.57;;;1.42;;
62338;SDS011;48368;53.406;6.214;2022-08-21T13:52:19;4.43;;;1.85;;
62338;SDS011;48368;53.406;6.214;2022-08-21T13:54:58;6.28;;;2.22;;
62338;SDS011;48368;53.406;6.214;2022-08-21T13:57:27;8.50;;;2.10;;
62338;SDS011;48368;53.406;6.214;2022-08-21T14:02:47;8.13;;;2.08;;
62338;SDS011;48368;53.406;6.214;2022-08-21T14:07:46;6.60;;;2.10;;
62338;SDS011;48368;53.406;6.214;2022-08-21T14:10:13;6.25;;;1.67;;
62338;SDS011;48368;53.406;6.214;2022-08-21T14:12:53;7.47;;;2.22;;
62338;SDS011;48368;53.406;6.214;2022-08-21T14:15:24;7.65;;;1.80;;
62338;SDS011;48368;53.406;6.214;2022-08-21T14:17:53;6.05;;;1.80;;
62338;SDS011;48368;53.406;6.214;2022-08-21T14:20:27;6.78;;;2.03;;
62338;SDS011;48368;53.406;6.214;2022-08-21T14:22:57;9.82;;;2.55;;
62338;SDS011;48368;53.406;6.214;2022-08-21T14:28:03;8.20;;;1.88;;
62338;SDS011;48368;53.406;6.214;2022-08-21T14:30:38;8.65;;;1.67;;
62338;SDS011;48368;53.406;6.214;2022-08-21T14:33:09;6.65;;;1.80;;
62338;SDS011;48368;53.406;6.214;2022-08-21T14:35:45;8.50;;;2.00;;
62338;SDS011;48368;53.406;6.214;2022-08-21T14:38:15;7.20;;;1.70;;
62338;SDS011;48368;53.406;6.214;2022-08-21T14:40:43;7.27;;;1.73;;
62338;SDS011;48368;53.406;6.214;2022-08-21T14:43:09;9.55;;;1.70;;
62338;SDS011;48368;53.406;6.214;2022-08-21T14:45:35;7.10;;;1.85;;
62338;SDS011;48368;53.406;6.214;2022-08-21T14:48:03;7.63;;;2.05;;
62338;SDS011;48368;53.406;6.214;2022-08-21T14:50:29;6.60;;;2.17;;
62338;SDS011;48368;53.406;6.214;2022-08-21T14:52:55;9.85;;;1.90;;
62338;SDS011;48368;53.406;6.214;2022-08-21T14:55:21;8.70;;;1.80;;
62338;SDS011;48368;53.406;6.214;2022-08-21T14:57:47;7.72;;;2.03;;
62338;SDS011;48368;53.406;6.214;2022-08-21T15:00:16;7.45;;;1.50;;
62338;SDS011;48368;53.406;6.214;2022-08-21T15:02:44;9.93;;;2.35;;
62338;SDS011;48368;53.406;6.214;2022-08-21T15:05:11;10.20;;;2.05;;
62338;SDS011;48368;53.406;6.214;2022-08-21T15:07:38;7.13;;;1.73;;
62338;SDS011;48368;53.406;6.214;2022-08-21T15:10:04;7.00;;;1.60;;
62338;SDS011;48368;53.406;6.214;2022-08-21T15:12:31;7.93;;;2.03;;
62338;SDS011;48368;53.406;6.214;2022-08-21T15:14:57;6.63;;;2.05;;
62338;SDS011;48368;53.406;6.214;2022-08-21T15:17:23;6.15;;;1.80;;
62338;SDS011;48368;53.406;6.214;2022-08-21T15:19:49;8.80;;;1.83;;
62338;SDS011;48368;53.406;6.214;2022-08-21T15:22:14;5.78;;;1.70;;
62338;SDS011;48368;53.406;6.214;2022-08-21T15:24:40;11.13;;;1.73;;
62338;SDS011;48368;53.406;6.214;2022-08-21T15:27:06;7.65;;;2.33;;
62338;SDS011;48368;53.406;6.214;2022-08-21T15:29:33;6.30;;;2.30;;
62338;SDS011;48368;53.406;6.214;2022-08-21T15:32:02;8.65;;;2.17;;
62338;SDS011;48368;53.406;6.214;2022-08-21T15:34:41;7.95;;;1.88;;
62338;SDS011;48368;53.406;6.214;2022-08-21T15:37:07;5.57;;;1.77;;
62338;SDS011;48368;53.406;6.214;2022-08-21T15:39:33;5.97;;;1.70;;
62338;SDS011;48368;53.406;6.214;2022-08-21T15:41:59;7.60;;;2.30;;
62338;SDS011;48368;53.406;6.214;2022-08-21T15:44:26;9.05;;;2.20;;
62338;SDS011;48368;53.406;6.214;2022-08-21T15:46:52;7.78;;;1.75;;
62338;SDS011;48368;53.406;6.214;2022-08-21T15:49:18;6.95;;;1.98;;
62338;SDS011;48368;53.406;6.214;2022-08-21T15:51:44;7.70;;;1.98;;
62338;SDS011;48368;53.406;6.214;2022-08-21T15:54:10;6.38;;;2.17;;
62338;SDS011;48368;53.406;6.214;2022-08-21T15:56:37;5.13;;;1.70;;
62338;SDS011;48368;53.406;6.214;2022-08-21T15:59:05;8.25;;;1.75;;
62338;SDS011;48368;53.406;6.214;2022-08-21T16:01:34;6.25;;;2.15;;
62338;SDS011;48368;53.406;6.214;2022-08-21T16:04:01;8.80;;;2.10;;
62338;SDS011;48368;53.406;6.214;2022-08-21T16:06:28;8.60;;;2.55;;
62338;SDS011;48368;53.406;6.214;2022-08-21T16:08:54;7.57;;;2.10;;
62338;SDS011;48368;53.406;6.214;2022-08-21T16:11:20;6.07;;;1.77;;
62338;SDS011;48368;53.406;6.214;2022-08-21T16:13:46;6.45;;;2.28;;
62338;SDS011;48368;53.406;6.214;2022-08-21T16:16:18;8.20;;;2.60;;
62338;SDS011;48368;53.406;6.214;2022-08-21T16:18:46;5.68;;;2.20;;
62338;SDS011;48368;53.406;6.214;2022-08-21T16:21:13;9.95;;;2.58;;
62338;SDS011;48368;53.406;6.214;2022-08-21T16:23:39;6.32;;;1.77;;
62338;SDS011;48368;53.406;6.214;2022-08-21T16:26:05;6.30;;;1.73;;
62338;SDS011;48368;53.406;6.214;2022-08-21T16:28:33;12.45;;;2.00;;